createdAt,value
2022-07-26T00:00:34.297Z,4.80
2022-07-26T00:03:01.182Z,6.07
2022-07-26T00:05:28.123Z,4.60
2022-07-26T00:08:10.488Z,4.77
2022-07-26T00:10:38.587Z,5.23
2022-07-26T00:13:05.578Z,3.80
2022-07-26T00:15:32.482Z,4.33
2022-07-26T00:17:59.402Z,4.93
2022-07-26T00:20:27.788Z,4.40
2022-07-26T00:22:55.536Z,4.33
2022-07-26T00:25:23.300Z,4.30
2022-07-26T00:27:50.381Z,3.87
2022-07-26T00:30:17.234Z,4.43
2022-07-26T00:32:44.274Z,3.97
2022-07-26T00:35:11.257Z,4.30
2022-07-26T00:37:38.526Z,4.03
2022-07-26T00:40:05.886Z,5.03
2022-07-26T00:42:37.235Z,5.30
2022-07-26T00:45:05.100Z,3.70
2022-07-26T00:47:32.119Z,5.70
2022-07-26T00:49:59.061Z,3.93
2022-07-26T00:52:26.112Z,5.00
2022-07-26T00:54:54.592Z,5.57
2022-07-26T00:57:24.989Z,3.70
2022-07-26T00:59:51.880Z,6.20
2022-07-26T01:02:19.443Z,4.77
2022-07-26T01:04:46.563Z,4.30
2022-07-26T01:07:15.753Z,5.23
2022-07-26T01:09:42.948Z,6.87
2022-07-26T01:12:10.127Z,7.50
2022-07-26T01:14:37.333Z,7.10
2022-07-26T01:17:04.447Z,7.07
2022-07-26T01:19:31.266Z,4.53
2022-07-26T01:21:58.123Z,5.97
2022-07-26T01:24:24.980Z,4.00
2022-07-26T01:26:51.772Z,5.43
2022-07-26T01:29:18.591Z,5.73
2022-07-26T01:31:45.594Z,5.60
2022-07-26T01:34:12.494Z,5.47
2022-07-26T01:36:39.735Z,4.50
2022-07-26T01:39:06.878Z,3.23
2022-07-26T01:41:38.403Z,4.67
2022-07-26T01:44:07.171Z,5.13
2022-07-26T01:46:34.932Z,4.20
2022-07-26T01:49:01.938Z,3.90
2022-07-26T01:51:28.874Z,4.27
2022-07-26T01:53:55.891Z,4.80
2022-07-26T01:56:22.740Z,6.63
2022-07-26T01:58:50.087Z,6.10
2022-07-26T02:01:16.968Z,5.00
2022-07-26T02:04:03.850Z,5.07
2022-07-26T02:06:30.795Z,4.30
2022-07-26T02:08:57.574Z,6.07
2022-07-26T02:11:24.630Z,4.00
2022-07-26T02:13:53.341Z,7.73
2022-07-26T02:16:20.347Z,4.63
2022-07-26T02:18:47.226Z,9.37
2022-07-26T02:21:14.147Z,4.33
2022-07-26T02:23:41.615Z,3.87
2022-07-26T02:26:09.018Z,4.20
2022-07-26T02:28:36.056Z,5.33
2022-07-26T02:31:02.968Z,3.90
2022-07-26T02:33:30.040Z,4.40
2022-07-26T02:35:56.839Z,3.50
2022-07-26T02:38:25.080Z,4.93
2022-07-26T02:40:52.689Z,4.40
2022-07-26T02:43:19.959Z,5.43
2022-07-26T02:46:00.991Z,6.57
2022-07-26T02:48:30.229Z,4.13
2022-07-26T02:50:57.173Z,6.10
2022-07-26T02:53:24.075Z,4.30
2022-07-26T02:55:51.054Z,7.03
2022-07-26T02:58:17.848Z,3.63
2022-07-26T03:00:44.672Z,5.50
2022-07-26T03:03:14.019Z,5.03
2022-07-26T03:05:41.204Z,4.63
2022-07-26T03:08:08.101Z,3.87
2022-07-26T03:10:34.979Z,4.53
2022-07-26T03:13:02.086Z,4.27
2022-07-26T03:15:29.053Z,4.20
2022-07-26T03:17:56.144Z,5.77
2022-07-26T03:20:22.957Z,4.63
2022-07-26T03:22:49.827Z,5.00
2022-07-26T03:25:16.633Z,4.23
2022-07-26T03:27:43.461Z,6.50
2022-07-26T03:30:10.602Z,5.53
2022-07-26T03:32:37.579Z,4.87
2022-07-26T03:35:05.129Z,3.83
2022-07-26T03:37:46.046Z,4.50
2022-07-26T03:40:15.461Z,4.83
2022-07-26T03:42:42.284Z,5.33
2022-07-26T03:45:09.313Z,4.37
2022-07-26T03:47:37.191Z,4.63
2022-07-26T03:50:04.952Z,4.77
2022-07-26T03:52:31.787Z,3.83
2022-07-26T03:54:58.691Z,4.77
2022-07-26T03:57:25.650Z,3.90
2022-07-26T03:59:55.770Z,7.73
2022-07-26T04:02:22.692Z,5.77
2022-07-26T04:04:49.574Z,3.10
2022-07-26T04:07:16.400Z,4.70
2022-07-26T04:09:43.180Z,5.57
2022-07-26T04:12:10.046Z,3.83
2022-07-26T04:14:36.927Z,3.50
2022-07-26T04:17:03.949Z,5.33
2022-07-26T04:19:30.775Z,4.53
2022-07-26T04:21:57.649Z,6.17
2022-07-26T04:24:25.552Z,3.53
2022-07-26T04:26:52.695Z,3.13
2022-07-26T04:29:19.557Z,3.90
2022-07-26T04:31:46.844Z,4.83
2022-07-26T04:34:13.785Z,4.93
2022-07-26T04:36:40.597Z,4.20
2022-07-26T04:39:07.426Z,5.47
2022-07-26T04:41:34.225Z,4.13
2022-07-26T04:44:00.959Z,4.60
2022-07-26T04:46:27.834Z,6.17
2022-07-26T04:48:54.885Z,6.30
2022-07-26T04:51:22.045Z,3.70
2022-07-26T04:53:48.860Z,3.10
2022-07-26T04:56:15.841Z,3.07
2022-07-26T04:58:42.568Z,3.97
2022-07-26T05:01:10.694Z,4.17
2022-07-26T05:03:38.387Z,5.43
2022-07-26T05:06:05.395Z,6.77
2022-07-26T05:08:32.234Z,4.63
2022-07-26T05:10:59.037Z,6.03
2022-07-26T05:13:29.975Z,5.70
2022-07-26T05:15:58.413Z,6.53
2022-07-26T05:18:25.732Z,4.97
2022-07-26T05:20:52.656Z,6.13
2022-07-26T05:23:20.422Z,4.17
2022-07-26T05:25:47.598Z,6.33
2022-07-26T05:28:14.487Z,6.17
2022-07-26T05:30:41.368Z,4.20
2022-07-26T05:33:08.388Z,4.03
2022-07-26T05:35:35.204Z,4.37
2022-07-26T05:38:02.188Z,4.47
2022-07-26T05:40:29.338Z,4.77
2022-07-26T05:42:56.235Z,3.90
2022-07-26T05:45:23.105Z,3.60
2022-07-26T05:47:50.582Z,5.30
2022-07-26T05:50:17.640Z,4.10
2022-07-26T05:52:44.465Z,5.63
2022-07-26T05:55:11.252Z,4.57
2022-07-26T05:57:41.437Z,4.60
2022-07-26T06:00:11.191Z,3.63
2022-07-26T06:02:40.992Z,6.70
2022-07-26T06:05:08.064Z,3.27
2022-07-26T06:07:34.830Z,4.63
2022-07-26T06:10:01.693Z,4.57
2022-07-26T06:12:28.511Z,5.43
2022-07-26T06:14:55.370Z,4.47
2022-07-26T06:17:22.379Z,5.20
2022-07-26T06:19:49.325Z,3.70
2022-07-26T06:22:16.233Z,4.83
2022-07-26T06:24:43.106Z,6.30
2022-07-26T06:27:09.900Z,5.60
2022-07-26T06:29:36.765Z,7.50
2022-07-26T06:32:03.730Z,6.23
2022-07-26T06:34:30.608Z,3.57
2022-07-26T06:36:57.548Z,3.90
2022-07-26T06:39:24.497Z,7.27
2022-07-26T06:41:51.232Z,6.13
2022-07-26T06:44:22.736Z,4.47
2022-07-26T06:46:49.794Z,6.33
2022-07-26T06:49:19.555Z,5.57
2022-07-26T06:51:48.773Z,6.43
2022-07-26T06:54:15.594Z,4.73
2022-07-26T06:56:42.361Z,5.47
2022-07-26T06:59:09.767Z,3.77
2022-07-26T07:01:58.659Z,5.33
2022-07-26T07:04:23.592Z,4.43
2022-07-26T07:06:50.464Z,4.20
2022-07-26T07:09:17.265Z,4.37
2022-07-26T07:11:44.442Z,4.77
2022-07-26T07:14:12.007Z,2.37
2022-07-26T07:16:39.141Z,4.80
2022-07-26T07:19:06.062Z,3.33
2022-07-26T07:21:33.809Z,3.03
2022-07-26T07:24:00.624Z,4.37
2022-07-26T07:26:28.763Z,2.53
2022-07-26T07:28:55.891Z,3.57
2022-07-26T07:31:28.571Z,2.90
2022-07-26T07:33:57.596Z,3.30
2022-07-26T07:36:24.417Z,2.30
2022-07-26T07:38:51.293Z,3.53
2022-07-26T07:41:18.978Z,3.93
2022-07-26T07:43:45.829Z,2.60
2022-07-26T07:46:13.349Z,6.30
2022-07-26T07:48:47.550Z,4.13
2022-07-26T07:51:14.881Z,3.93
2022-07-26T07:53:43.009Z,2.10
2022-07-26T07:56:09.803Z,2.90
2022-07-26T07:58:36.579Z,3.43
2022-07-26T08:01:03.437Z,3.07
2022-07-26T08:03:38.919Z,2.37
2022-07-26T08:06:07.027Z,2.47
2022-07-26T08:08:34.397Z,1.87
2022-07-26T08:11:01.263Z,3.33
2022-07-26T08:13:28.032Z,2.60
2022-07-26T08:15:55.829Z,3.97
2022-07-26T08:18:23.768Z,2.07
2022-07-26T08:20:52.363Z,2.63
2022-07-26T08:23:20.284Z,2.80
2022-07-26T08:25:56.039Z,2.83
2022-07-26T08:28:45.534Z,2.60
2022-07-26T08:31:12.285Z,2.80
2022-07-26T08:33:39.382Z,3.60
2022-07-26T08:36:07.881Z,3.17
2022-07-26T08:38:34.818Z,2.40
2022-07-26T08:41:01.620Z,3.87
2022-07-26T08:43:28.908Z,2.77
2022-07-26T08:46:00.109Z,3.97
2022-07-26T08:48:26.967Z,3.97
2022-07-26T08:50:55.223Z,2.70
2022-07-26T08:53:22.283Z,2.33
2022-07-26T08:58:37.203Z,2.37
2022-07-26T09:01:13.213Z,3.23
2022-07-26T09:03:41.082Z,3.13
2022-07-26T09:06:11.754Z,2.23
2022-07-26T09:08:38.688Z,3.00
2022-07-26T09:11:25.557Z,2.40
2022-07-26T09:13:55.329Z,2.37
2022-07-26T09:16:22.369Z,3.00
2022-07-26T09:18:49.152Z,3.37
2022-07-26T09:21:28.993Z,5.80
2022-07-26T09:23:56.401Z,2.00
2022-07-26T09:26:25.999Z,3.07
2022-07-26T09:29:06.460Z,4.33
2022-07-26T09:31:34.523Z,3.23
2022-07-26T09:34:01.554Z,2.00
2022-07-26T09:36:28.534Z,3.53
2022-07-26T09:38:58.510Z,2.73
2022-07-26T09:41:30.299Z,3.13
2022-07-26T09:43:59.759Z,4.03
2022-07-26T09:46:30.330Z,3.20
2022-07-26T09:49:13.434Z,4.13
2022-07-26T09:51:41.500Z,1.90
2022-07-26T09:54:10.085Z,3.80
2022-07-26T09:56:43.357Z,3.47
2022-07-26T09:59:10.216Z,2.13
2022-07-26T10:01:37.172Z,4.53
2022-07-26T10:04:04.204Z,3.23
2022-07-26T10:06:31.654Z,3.63
2022-07-26T10:08:59.255Z,3.80
2022-07-26T10:11:26.773Z,2.93
2022-07-26T10:13:53.531Z,2.50
2022-07-26T10:16:33.104Z,4.87
2022-07-26T10:19:02.603Z,3.47
2022-07-26T10:21:29.962Z,4.60
2022-07-26T10:24:00.383Z,4.07
2022-07-26T10:26:33.687Z,5.67
2022-07-26T10:29:17.152Z,2.73
2022-07-26T10:31:43.975Z,2.73
2022-07-26T10:34:32.403Z,3.30
2022-07-26T10:37:00.561Z,2.77
2022-07-26T10:39:27.317Z,2.50
2022-07-26T10:41:58.337Z,3.47
2022-07-26T10:44:29.121Z,1.63
2022-07-26T10:46:56.466Z,2.93
2022-07-26T10:49:30.295Z,3.27
2022-07-26T10:52:15.549Z,1.73
2022-07-26T10:55:00.670Z,2.13
2022-07-26T10:57:28.912Z,2.47
2022-07-26T10:59:58.835Z,2.28
2022-07-26T11:02:28.772Z,2.90
2022-07-26T11:04:59.423Z,1.77
2022-07-26T11:07:26.365Z,2.95
2022-07-26T11:09:56.997Z,1.95
2022-07-26T11:12:24.053Z,1.33
2022-07-26T11:14:51.236Z,2.08
2022-07-26T11:17:24.973Z,3.00
2022-07-26T11:19:52.004Z,2.00
2022-07-26T11:22:18.943Z,2.65
2022-07-26T11:24:45.911Z,4.93
2022-07-26T11:27:12.739Z,1.45
2022-07-26T11:29:41.132Z,2.63
2022-07-26T11:32:18.172Z,2.65
2022-07-26T11:34:45.584Z,2.40
2022-07-26T11:37:12.946Z,2.70
2022-07-26T11:39:39.962Z,2.17
2022-07-26T11:42:08.429Z,2.50
2022-07-26T11:44:35.851Z,3.85
2022-07-26T11:47:13.548Z,1.48
2022-07-26T11:50:00.893Z,2.00
2022-07-26T11:52:31.550Z,2.00
2022-07-26T11:54:58.812Z,2.17
2022-07-26T11:57:29.319Z,2.15
2022-07-26T11:59:56.112Z,2.05
2022-07-26T12:02:23.014Z,1.60
2022-07-26T12:04:50.016Z,2.13
2022-07-26T12:07:18.449Z,1.40
2022-07-26T12:09:52.127Z,1.80
2022-07-26T12:12:29.213Z,1.25
2022-07-26T12:15:00.246Z,1.85
2022-07-26T12:17:27.469Z,1.70
2022-07-26T12:20:15.193Z,2.20
2022-07-26T12:23:06.057Z,1.48
2022-07-26T12:25:33.728Z,1.50
2022-07-26T12:28:00.506Z,4.03
2022-07-26T12:30:30.960Z,1.77
2022-07-26T12:33:01.953Z,1.63
2022-07-26T12:35:32.198Z,2.65
2022-07-26T12:37:59.443Z,1.48
2022-07-26T12:40:27.368Z,1.85
2022-07-26T12:43:00.246Z,2.38
2022-07-26T12:45:29.181Z,1.67
2022-07-26T12:47:57.216Z,1.98
2022-07-26T12:50:25.783Z,2.30
2022-07-26T12:52:53.059Z,1.35
2022-07-26T12:55:21.499Z,2.60
2022-07-26T12:57:48.903Z,1.40
2022-07-26T13:00:20.484Z,1.17
2022-07-26T13:02:47.578Z,1.13
2022-07-26T13:05:14.908Z,1.40
2022-07-26T13:07:41.870Z,1.50
2022-07-26T13:10:31.818Z,1.45
2022-07-26T13:12:56.163Z,2.80
2022-07-26T13:15:23.086Z,1.50
2022-07-26T13:18:02.225Z,1.23
2022-07-26T13:20:29.064Z,2.03
2022-07-26T13:22:55.805Z,2.47
2022-07-26T13:25:22.606Z,1.75
2022-07-26T13:27:51.362Z,2.33
2022-07-26T13:30:18.123Z,2.42
2022-07-26T13:32:44.998Z,1.90
2022-07-26T13:35:11.901Z,2.05
2022-07-26T13:37:39.393Z,1.38
2022-07-26T13:40:06.530Z,2.22
2022-07-26T13:42:33.336Z,2.35
2022-07-26T13:45:00.107Z,1.85
2022-07-26T13:47:27.011Z,2.35
2022-07-26T13:49:53.872Z,1.27
2022-07-26T13:52:20.660Z,1.35
2022-07-26T13:54:47.486Z,1.80
2022-07-26T13:57:14.377Z,2.85
2022-07-26T13:59:41.190Z,2.80
2022-07-26T14:02:08.262Z,1.60
2022-07-26T14:04:35.918Z,1.80
2022-07-26T14:07:02.704Z,2.40
2022-07-26T14:09:29.565Z,1.83
2022-07-26T14:11:56.360Z,3.75
2022-07-26T14:14:23.497Z,4.20
2022-07-26T14:16:50.295Z,2.47
2022-07-26T14:19:17.656Z,1.37
2022-07-26T14:21:48.944Z,1.10
2022-07-26T14:24:27.448Z,1.63
2022-07-26T14:26:58.870Z,1.90
2022-07-26T14:29:27.393Z,1.73
2022-07-26T14:31:54.334Z,1.50
2022-07-26T14:34:21.161Z,2.50
2022-07-26T14:36:47.944Z,1.97
2022-07-26T14:39:14.707Z,1.00
2022-07-26T14:41:41.491Z,1.53
2022-07-26T14:44:08.556Z,1.83
2022-07-26T14:46:35.822Z,1.00
2022-07-26T14:49:02.682Z,2.60
2022-07-26T14:51:29.598Z,1.73
2022-07-26T14:53:56.458Z,1.23
2022-07-26T14:56:23.314Z,1.80
2022-07-26T14:58:50.566Z,2.10
2022-07-26T15:01:17.637Z,1.67
2022-07-26T15:03:44.521Z,1.23
2022-07-26T15:06:11.337Z,1.90
2022-07-26T15:08:38.233Z,1.40
2022-07-26T15:11:05.893Z,0.90
2022-07-26T15:13:32.831Z,0.80
2022-07-26T15:15:59.693Z,1.17
2022-07-26T15:18:26.622Z,3.07
2022-07-26T15:20:53.476Z,1.40
2022-07-26T15:23:20.374Z,1.47
2022-07-26T15:25:48.640Z,2.37
2022-07-26T15:28:15.770Z,2.67
2022-07-26T15:30:42.966Z,0.70
2022-07-26T15:33:09.916Z,2.17
2022-07-26T15:35:37.170Z,1.73
2022-07-26T15:38:04.239Z,1.00
2022-07-26T15:40:31.156Z,0.67
2022-07-26T15:42:58.166Z,0.97
2022-07-26T15:45:25.254Z,1.50
2022-07-26T15:47:55.893Z,0.90
2022-07-26T15:50:23.107Z,1.73
2022-07-26T15:52:50.269Z,1.47
2022-07-26T15:55:18.034Z,1.20
2022-07-26T15:57:45.849Z,3.67
2022-07-26T16:00:12.986Z,1.47
2022-07-26T16:02:40.332Z,3.00
2022-07-26T16:05:07.688Z,1.43
2022-07-26T16:07:34.515Z,1.77
2022-07-26T16:10:01.716Z,1.53
2022-07-26T16:12:29.059Z,4.07
2022-07-26T16:14:56.022Z,1.53
2022-07-26T16:17:22.885Z,1.47
2022-07-26T16:19:49.662Z,0.87
2022-07-26T16:22:16.784Z,2.27
2022-07-26T16:24:43.575Z,1.00
2022-07-26T16:27:10.387Z,1.27
2022-07-26T16:29:37.156Z,1.20
2022-07-26T16:32:04.119Z,2.33
2022-07-26T16:34:34.611Z,1.10
2022-07-26T16:37:01.906Z,1.83
2022-07-26T16:39:28.885Z,3.13
2022-07-26T16:41:55.882Z,2.07
2022-07-26T16:44:24.065Z,2.10
2022-07-26T16:46:51.225Z,2.93
2022-07-26T16:49:18.185Z,1.63
2022-07-26T16:51:45.101Z,0.90
2022-07-26T16:54:12.615Z,2.43
2022-07-26T16:56:39.533Z,2.00
2022-07-26T16:59:10.299Z,1.37
2022-07-26T17:01:37.465Z,1.30
2022-07-26T17:04:04.355Z,1.73
2022-07-26T17:06:31.207Z,1.57
2022-07-26T17:08:58.015Z,1.77
2022-07-26T17:11:25.212Z,3.23
2022-07-26T17:13:53.403Z,2.83
2022-07-26T17:16:24.252Z,2.40
2022-07-26T17:18:52.326Z,1.87
2022-07-26T17:21:19.087Z,2.30
2022-07-26T17:23:45.980Z,2.70
2022-07-26T17:26:12.846Z,2.57
2022-07-26T17:28:39.789Z,1.93
2022-07-26T17:31:06.556Z,1.70
2022-07-26T17:33:33.418Z,2.60
2022-07-26T17:36:03.220Z,1.90
2022-07-26T17:38:30.372Z,2.00
2022-07-26T17:40:57.155Z,1.33
2022-07-26T17:43:24.123Z,1.97
2022-07-26T17:46:03.556Z,1.75
2022-07-26T17:48:30.438Z,5.23
2022-07-26T17:50:57.385Z,2.33
2022-07-26T17:53:33.946Z,1.17
2022-07-26T17:56:02.708Z,3.00
2022-07-26T17:58:29.505Z,1.27
2022-07-26T18:00:56.338Z,1.63
2022-07-26T18:03:25.252Z,2.20
2022-07-26T18:05:52.295Z,1.33
2022-07-26T18:08:19.254Z,2.33
2022-07-26T18:10:50.910Z,3.40
2022-07-26T18:13:18.999Z,3.73
2022-07-26T18:15:47.223Z,2.70
2022-07-26T18:18:15.690Z,3.60
2022-07-26T18:20:42.544Z,3.77
2022-07-26T18:23:09.434Z,2.90
2022-07-26T18:25:37.350Z,2.97
2022-07-26T18:28:06.988Z,1.63
2022-07-26T18:30:34.167Z,1.50
2022-07-26T18:33:01.550Z,1.30
2022-07-26T18:35:28.569Z,3.17
2022-07-26T18:37:55.558Z,3.50
2022-07-26T18:40:23.561Z,2.43
2022-07-26T18:42:50.590Z,3.23
2022-07-26T18:45:17.580Z,3.93
2022-07-26T18:47:45.793Z,3.73
2022-07-26T18:50:15.351Z,2.53
2022-07-26T18:52:44.477Z,2.03
2022-07-26T18:55:12.538Z,1.87
2022-07-26T18:57:40.100Z,1.30
2022-07-26T19:00:11.740Z,1.83
2022-07-26T19:02:38.575Z,1.37
2022-07-26T19:05:05.633Z,3.33
2022-07-26T19:07:32.425Z,1.40
2022-07-26T19:09:59.283Z,2.50
2022-07-26T19:12:27.251Z,1.43
2022-07-26T19:14:54.192Z,2.43
2022-07-26T19:17:21.520Z,2.37
2022-07-26T19:19:48.341Z,2.40
2022-07-26T19:22:15.203Z,1.60
2022-07-26T19:24:42.051Z,2.17
2022-07-26T19:27:09.439Z,2.00
2022-07-26T19:29:37.039Z,1.57
2022-07-26T19:32:04.577Z,1.80
2022-07-26T19:34:31.357Z,2.87
2022-07-26T19:36:59.427Z,1.87
2022-07-26T19:39:26.467Z,3.10
2022-07-26T19:41:53.430Z,2.10
2022-07-26T19:44:20.349Z,2.63
2022-07-26T19:46:47.587Z,2.03
2022-07-26T19:49:16.754Z,4.20
2022-07-26T19:51:44.176Z,3.17
2022-07-26T19:54:11.011Z,2.37
2022-07-26T19:56:39.912Z,2.30
2022-07-26T19:59:06.818Z,2.63
2022-07-26T20:01:33.773Z,3.20
2022-07-26T20:04:02.237Z,3.00
2022-07-26T20:06:29.172Z,2.50
2022-07-26T20:08:56.099Z,2.23
2022-07-26T20:11:24.802Z,2.47
2022-07-26T20:13:51.701Z,2.47
2022-07-26T20:16:18.573Z,2.00
2022-07-26T20:18:45.410Z,1.70
2022-07-26T20:21:12.296Z,3.13
2022-07-26T20:23:39.099Z,1.77
2022-07-26T20:26:06.097Z,2.10
2022-07-26T20:28:33.154Z,1.90
2022-07-26T20:31:00.091Z,2.57
2022-07-26T20:33:27.023Z,2.20
2022-07-26T20:35:55.285Z,4.40
2022-07-26T20:38:22.428Z,3.33
2022-07-26T20:40:49.505Z,2.23
2022-07-26T20:43:17.169Z,2.07
2022-07-26T20:45:44.460Z,3.90
2022-07-26T20:48:11.349Z,3.10
2022-07-26T20:50:39.363Z,3.40
2022-07-26T20:53:06.272Z,3.70
2022-07-26T20:55:33.113Z,4.00
2022-07-26T20:57:59.965Z,2.60
2022-07-26T21:00:27.234Z,3.03
2022-07-26T21:02:55.157Z,1.80
2022-07-26T21:05:22.132Z,2.27
2022-07-26T21:07:56.546Z,3.57
2022-07-26T21:10:27.690Z,2.40
2022-07-26T21:12:57.153Z,3.23
2022-07-26T21:15:24.031Z,5.20
2022-07-26T21:17:52.325Z,3.90
2022-07-26T21:20:19.452Z,2.60
2022-07-26T21:22:46.277Z,3.30
2022-07-26T21:25:13.140Z,2.10
2022-07-26T21:27:43.750Z,1.90
2022-07-26T21:30:10.768Z,3.43
2022-07-26T21:32:37.569Z,3.80
2022-07-26T21:35:04.699Z,2.13
2022-07-26T21:37:31.510Z,4.13
2022-07-26T21:39:59.975Z,2.33
2022-07-26T21:42:27.959Z,4.63
2022-07-26T21:44:54.811Z,3.17
2022-07-26T21:47:21.680Z,2.37
2022-07-26T21:49:48.509Z,2.23
2022-07-26T21:52:15.272Z,1.93
2022-07-26T21:54:42.096Z,2.70
2022-07-26T21:57:09.131Z,1.63
2022-07-26T21:59:35.993Z,2.90
2022-07-26T22:02:02.929Z,1.80
2022-07-26T22:04:30.857Z,2.97
2022-07-26T22:06:57.854Z,1.90
2022-07-26T22:09:24.665Z,1.90
2022-07-26T22:11:52.973Z,2.57
2022-07-26T22:14:19.984Z,2.53
2022-07-26T22:16:49.692Z,3.53
2022-07-26T22:19:16.703Z,7.67
2022-07-26T22:21:43.520Z,2.30
2022-07-26T22:24:10.406Z,2.43
2022-07-26T22:26:37.475Z,1.77
2022-07-26T22:29:04.350Z,1.60
2022-07-26T22:31:31.137Z,2.00
2022-07-26T22:33:57.932Z,2.13
2022-07-26T22:36:24.682Z,1.77
2022-07-26T22:38:51.485Z,2.70
2022-07-26T22:41:18.303Z,2.80
2022-07-26T22:43:45.091Z,2.63
2022-07-26T22:46:11.964Z,3.37
2022-07-26T22:48:39.908Z,1.93
2022-07-26T22:51:09.071Z,2.77
2022-07-26T22:53:35.960Z,3.17
2022-07-26T22:56:02.905Z,3.20
2022-07-26T22:58:29.671Z,3.10
2022-07-26T23:00:57.397Z,1.97
2022-07-26T23:03:24.319Z,3.00
2022-07-26T23:05:52.421Z,3.03
2022-07-26T23:11:06.566Z,3.57
2022-07-26T23:13:33.657Z,3.07
2022-07-26T23:16:01.665Z,7.23
2022-07-26T23:18:29.704Z,2.13
2022-07-26T23:20:56.518Z,2.90
2022-07-26T23:23:23.246Z,2.10
2022-07-26T23:25:56.290Z,2.20
2022-07-26T23:28:36.111Z,1.70
2022-07-26T23:31:14.507Z,3.43
2022-07-26T23:33:52.813Z,3.47
2022-07-26T23:36:21.706Z,2.30
2022-07-26T23:38:48.416Z,3.57
2022-07-26T23:41:15.312Z,3.97
2022-07-26T23:43:42.211Z,2.73
2022-07-26T23:46:09.019Z,3.67
2022-07-26T23:48:35.894Z,2.20
2022-07-26T23:51:02.705Z,3.97
2022-07-26T23:53:29.572Z,2.23
2022-07-26T23:55:56.336Z,3.83
2022-07-26T23:58:23.216Z,4.43
